Time;durP1;ratioP1;P1;durP2;ratioP2;P2;SDS_P1;SDS_P2;PMS_P1;PMS_P2;Temp;Humidity;BMP_temperature;BMP_pressure;BME280_temperature;BME280_humidity;BME280_pressure;Samples;Min_cycle;Max_cycle;Signal;HPM_P1;HPM_P2
2023/06/03 00:01:03;;;;;;;6.70;1.60;;;11.90;96.40;;;;;;5016167;28;20054;-71
2023/06/03 00:03:32;;;;;;;8.40;1.60;;;11.80;96.40;;;;;;4946818;28;209709;-72
2023/06/03 00:05:59;;;;;;;6.03;1.40;;;11.80;96.40;;;;;;5008527;28;20043;-71
2023/06/03 00:08:25;;;;;;;6.72;1.50;;;11.70;96.30;;;;;;4956617;28;220355;-74
2023/06/03 00:10:51;;;;;;;7.82;1.52;;;11.70;96.40;;;;;;5015734;28;20065;-72
2023/06/03 00:13:17;;;;;;;8.13;1.67;;;11.70;96.30;;;;;;4981530;28;206120;-72
2023/06/03 00:15:44;;;;;;;6.07;1.45;;;11.60;96.30;;;;;;4997697;28;20046;-71
2023/06/03 00:18:10;;;;;;;5.50;1.27;;;11.60;96.30;;;;;;4966090;28;210284;-73
2023/06/03 00:20:36;;;;;;;6.25;1.27;;;11.50;96.40;;;;;;5012923;28;20526;-72
2023/06/03 00:23:03;;;;;;;7.80;1.70;;;11.50;96.30;;;;;;4993598;28;202424;-72
2023/06/03 00:25:32;;;;;;;5.50;1.50;;;11.40;96.30;;;;;;4996317;28;165429;-72
2023/06/03 00:27:58;;;;;;;6.30;1.50;;;11.40;96.40;;;;;;5007630;28;20426;-72
2023/06/03 00:30:24;;;;;;;7.57;1.42;;;11.30;96.40;;;;;;4971518;28;193596;-72
2023/06/03 00:32:50;;;;;;;8.52;1.58;;;11.30;96.40;;;;;;5005781;28;20057;-72
2023/06/03 00:35:16;;;;;;;7.03;1.58;;;11.30;96.40;;;;;;4977083;28;227880;-72
2023/06/03 00:37:42;;;;;;;9.57;1.50;;;11.20;96.40;;;;;;5008333;28;20069;-72
2023/06/03 00:40:09;;;;;;;6.15;1.20;;;11.20;96.40;;;;;;4962579;28;208499;-71
2023/06/03 00:42:35;;;;;;;6.40;1.40;;;11.10;96.40;;;;;;4990674;28;20087;-72
2023/06/03 00:45:01;;;;;;;6.18;1.33;;;11.10;96.40;;;;;;4938055;28;246311;-72
2023/06/03 00:47:28;;;;;;;8.13;1.60;;;11.10;96.40;;;;;;4992368;28;20066;-72
2023/06/03 00:49:54;;;;;;;6.95;1.48;;;11.00;96.40;;;;;;4967914;28;216938;-72
2023/06/03 00:52:23;;;;;;;6.38;1.38;;;11.00;96.50;;;;;;5004962;28;20069;-72
2023/06/03 00:54:51;;;;;;;7.35;1.58;;;10.90;96.50;;;;;;4968194;28;208481;-72
2023/06/03 00:57:20;;;;;;;6.25;1.48;;;10.90;96.60;;;;;;5012515;28;20080;-72
2023/06/03 00:59:46;;;;;;;7.43;1.60;;;10.80;96.50;;;;;;4941972;28;206765;-71
2023/06/03 01:02:13;;;;;;;6.95;1.48;;;10.80;96.50;;;;;;5008149;28;20041;-71
2023/06/03 01:04:42;;;;;;;6.65;1.50;;;10.70;96.50;;;;;;4966255;28;221623;-71
2023/06/03 01:07:37;;;;;;;5.43;1.45;;;10.70;96.50;;;;;;5007735;28;20058;-72
2023/06/03 01:10:12;;;;;;;6.15;1.20;;;10.70;96.50;;;;;;4977514;28;207120;-72
2023/06/03 01:12:45;;;;;;;5.82;1.50;;;10.60;96.50;;;;;;5040497;28;20525;-72
2023/06/03 01:15:32;;;;;;;7.90;1.70;;;10.60;96.50;;;;;;4962138;28;207578;-72
2023/06/03 01:18:00;;;;;;;5.93;1.50;;;10.60;96.50;;;;;;5020346;28;20061;-71
2023/06/03 01:20:28;;;;;;;5.97;1.48;;;10.50;96.50;;;;;;4997318;28;26555;-72
2023/06/03 01:23:03;;;;;;;9.23;1.40;;;10.50;96.50;;;;;;5041415;28;20066;-71
2023/06/03 01:25:29;;;;;;;5.40;1.20;;;10.40;96.50;;;;;;4923087;28;194032;-72
2023/06/03 01:27:57;;;;;;;9.27;1.50;;;10.40;96.60;;;;;;4986414;28;20054;-72
2023/06/03 01:30:23;;;;;;;8.75;1.60;;;10.40;96.60;;;;;;4944520;28;210200;-72
2023/06/03 01:32:50;;;;;;;8.20;1.70;;;10.40;96.60;;;;;;4985878;28;20471;-71
2023/06/03 01:35:17;;;;;;;7.78;1.58;;;10.30;96.60;;;;;;4942480;28;206738;-72
2023/06/03 01:37:45;;;;;;;10.38;1.80;;;10.30;96.60;;;;;;4986843;28;20156;-71
2023/06/03 01:40:11;;;;;;;5.70;1.40;;;10.20;96.70;;;;;;4966321;28;209274;-71
2023/06/03 01:42:38;;;;;;;5.88;1.40;;;10.20;96.70;;;;;;5003544;28;20398;-72
2023/06/03 01:45:05;;;;;;;7.38;1.40;;;10.20;96.70;;;;;;4981493;28;205793;-72
2023/06/03 01:47:32;;;;;;;6.15;1.42;;;10.10;96.70;;;;;;5007077;28;20634;-74
2023/06/03 01:49:58;;;;;;;7.82;1.50;;;10.10;96.70;;;;;;4959984;28;207150;-72
2023/06/03 01:52:25;;;;;;;6.60;1.60;;;10.10;96.70;;;;;;4983786;28;20530;-72
2023/06/03 01:54:52;;;;;;;6.10;1.48;;;10.10;96.70;;;;;;4960788;28;205804;-72
2023/06/03 01:57:18;;;;;;;6.82;1.40;;;10.00;96.70;;;;;;5007309;28;20058;-72
2023/06/03 01:59:44;;;;;;;8.05;1.60;;;10.00;96.70;;;;;;4925488;28;247993;-73
2023/06/03 02:02:10;;;;;;;6.38;1.50;;;10.00;96.70;;;;;;4987403;28;20613;-70
2023/06/03 02:04:36;;;;;;;5.63;1.40;;;10.00;96.70;;;;;;4940331;28;209794;-72
2023/06/03 02:07:03;;;;;;;8.98;1.70;;;9.90;96.70;;;;;;4985833;28;20077;-71
2023/06/03 02:09:29;;;;;;;7.25;1.65;;;9.80;96.70;;;;;;4961626;28;208581;-70
2023/06/03 02:11:57;;;;;;;5.85;1.42;;;9.80;96.70;;;;;;4993611;28;20400;-71
2023/06/03 02:14:25;;;;;;;7.47;1.40;;;9.80;96.80;;;;;;4941080;28;209771;-72
2023/06/03 02:16:52;;;;;;;7.55;1.40;;;9.80;96.80;;;;;;4990535;28;20066;-73
2023/06/03 02:19:26;;;;;;;8.90;1.55;;;9.70;96.80;;;;;;4977148;28;206434;-71
2023/06/03 02:21:56;;;;;;;6.32;1.60;;;9.70;96.80;;;;;;4981159;28;20673;-71
2023/06/03 02:24:23;;;;;;;8.85;1.27;;;9.70;96.90;;;;;;4943477;28;222596;-71
2023/06/03 02:26:52;;;;;;;6.32;1.52;;;9.70;96.90;;;;;;4988677;28;20046;-71
2023/06/03 02:29:23;;;;;;;7.35;1.55;;;9.60;96.90;;;;;;4960088;28;207381;-71
2023/06/03 02:31:50;;;;;;;7.13;1.60;;;9.60;97.00;;;;;;4991533;28;20134;-72
2023/06/03 02:34:16;;;;;;;9.98;1.50;;;9.60;97.00;;;;;;4960141;28;211444;-71
2023/06/03 02:36:43;;;;;;;6.18;1.40;;;9.50;97.00;;;;;;4993103;28;20057;-71
2023/06/03 02:39:11;;;;;;;5.00;1.20;;;9.50;97.10;;;;;;4952595;28;211914;-72
2023/06/03 02:41:39;;;;;;;6.57;1.40;;;9.50;97.10;;;;;;5013885;28;20053;-71
2023/06/03 02:44:05;;;;;;;6.30;1.63;;;9.40;97.20;;;;;;4958687;28;207797;-70
2023/06/03 02:46:31;;;;;;;6.68;1.50;;;9.50;97.30;;;;;;5008266;28;20050;-70
2023/06/03 02:49:02;;;;;;;8.05;1.77;;;9.40;97.30;;;;;;4959303;28;209916;-71
2023/06/03 02:51:28;;;;;;;7.22;1.65;;;9.30;97.30;;;;;;5000385;28;20042;-71
2023/06/03 02:53:55;;;;;;;6.95;1.40;;;9.30;97.40;;;;;;4949597;28;205489;-70
2023/06/03 02:56:22;;;;;;;8.23;1.58;;;9.20;97.40;;;;;;5006480;28;20046;-72
2023/06/03 02:58:50;;;;;;;8.48;1.60;;;9.20;97.50;;;;;;4948512;28;206840;-70
2023/06/03 03:01:20;;;;;;;6.18;1.45;;;9.10;97.50;;;;;;5005106;28;20053;-73
2023/06/03 03:03:47;;;;;;;5.72;1.40;;;9.10;97.60;;;;;;4950243;28;209851;-71
2023/06/03 03:06:15;;;;;;;7.93;1.60;;;9.10;97.70;;;;;;5014451;28;20053;-72
2023/06/03 03:08:42;;;;;;;7.03;1.50;;;9.00;98.00;;;;;;4939134;28;207426;-71
2023/06/03 03:11:12;;;;;;;7.55;1.42;;;9.10;97.90;;;;;;5011647;28;20735;-70
2023/06/03 03:13:39;;;;;;;5.63;1.40;;;9.00;97.90;;;;;;4951484;28;223933;-72
2023/06/03 03:16:06;;;;;;;8.70;1.67;;;8.90;98.00;;;;;;5030007;28;20057;-72
2023/06/03 03:18:32;;;;;;;6.70;1.60;;;8.90;98.10;;;;;;4957906;28;207409;-72
2023/06/03 03:20:58;;;;;;;8.38;1.70;;;8.90;98.20;;;;;;5021377;28;20534;-71
2023/06/03 03:23:27;;;;;;;7.80;1.80;;;8.90;98.20;;;;;;4954235;28;208851;-72
2023/06/03 03:25:53;;;;;;;6.15;1.52;;;8.90;98.30;;;;;;4996291;28;20511;-72
2023/06/03 03:28:19;;;;;;;6.50;1.65;;;8.80;98.40;;;;;;4947485;28;209611;-72
2023/06/03 03:30:46;;;;;;;6.50;1.85;;;8.80;98.60;;;;;;5027719;28;20046;-71
2023/06/03 03:33:15;;;;;;;7.07;1.55;;;8.90;98.70;;;;;;4947209;28;209787;-71
2023/06/03 03:35:43;;;;;;;7.45;1.60;;;8.90;98.60;;;;;;5011689;28;20041;-71
2023/06/03 03:38:09;;;;;;;8.95;1.70;;;8.90;98.60;;;;;;4950795;28;209483;-70
2023/06/03 03:40:38;;;;;;;7.18;1.55;;;8.90;98.70;;;;;;5017670;28;20041;-71
2023/06/03 03:43:04;;;;;;;9.75;1.95;;;8.90;98.70;;;;;;4985992;28;207964;-71
2023/06/03 03:45:37;;;;;;;8.10;1.80;;;8.90;98.80;;;;;;4965411;28;20049;-70
2023/06/03 03:48:08;;;;;;;8.85;1.63;;;8.90;98.80;;;;;;4985265;28;209509;-71
2023/06/03 03:50:39;;;;;;;6.53;1.77;;;8.90;98.90;;;;;;4957956;28;20058;-72
2023/06/03 03:53:16;;;;;;;6.80;1.70;;;8.90;98.90;;;;;;4974725;28;206223;-71
2023/06/03 03:55:46;;;;;;;8.18;1.83;;;9.00;99.00;;;;;;4963575;28;20054;-71
2023/06/03 03:58:23;;;;;;;6.30;1.60;;;9.10;99.00;;;;;;4938635;28;208784;-71
2023/06/03 04:00:51;;;;;;;8.45;1.90;;;9.10;99.00;;;;;;4978282;28;20419;-71
2023/06/03 04:03:19;;;;;;;6.73;1.80;;;9.10;99.10;;;;;;4941909;28;206668;-72
2023/06/03 04:05:47;;;;;;;9.45;1.60;;;9.20;99.10;;;;;;5014792;28;20062;-72
2023/06/03 04:08:32;;;;;;;7.28;1.70;;;9.20;99.10;;;;;;4958561;28;201895;-71
2023/06/03 04:10:59;;;;;;;10.52;1.70;;;9.30;99.00;;;;;;5003289;28;20073;-71
2023/06/03 04:13:25;;;;;;;8.27;1.70;;;9.30;99.10;;;;;;4936857;28;207542;-72
2023/06/03 04:15:52;;;;;;;7.05;1.80;;;9.30;99.10;;;;;;5019652;28;20059;-72
2023/06/03 04:18:20;;;;;;;7.95;1.67;;;9.40;99.10;;;;;;4925780;28;209147;-73
2023/06/03 04:20:48;;;;;;;9.52;2.10;;;9.40;99.10;;;;;;4968150;28;20049;-71
2023/06/03 04:23:17;;;;;;;7.10;1.75;;;9.50;99.30;;;;;;4931048;28;208681;-72
2023/06/03 04:25:43;;;;;;;6.72;1.67;;;9.60;99.20;;;;;;5016765;28;20042;-72
2023/06/03 04:28:10;;;;;;;6.78;1.70;;;9.70;99.20;;;;;;4933181;28;207936;-71
2023/06/03 04:30:36;;;;;;;9.95;1.70;;;9.70;99.10;;;;;;5003041;28;20050;-71
2023/06/03 04:33:03;;;;;;;6.07;1.70;;;9.80;99.10;;;;;;4976102;28;227264;-72
2023/06/03 04:35:29;;;;;;;6.35;1.65;;;9.90;99.10;;;;;;4958905;28;103119;-71
2023/06/03 04:37:57;;;;;;;5.95;1.60;;;10.00;99.00;;;;;;4988879;28;20055;-72
2023/06/03 04:40:23;;;;;;;6.07;1.80;;;10.10;99.00;;;;;;4965595;28;209133;-71
2023/06/03 04:42:50;;;;;;;7.28;1.63;;;10.10;99.00;;;;;;5037739;28;20415;-70
2023/06/03 04:45:16;;;;;;;8.60;1.75;;;10.20;99.00;;;;;;4934297;28;207022;-72
2023/06/03 04:47:42;;;;;;;9.40;2.00;;;10.20;98.90;;;;;;4992673;28;20058;-72
2023/06/03 04:50:09;;;;;;;7.38;1.65;;;10.30;98.90;;;;;;4947011;28;207277;-72
2023/06/03 04:52:36;;;;;;;8.75;1.90;;;10.30;98.90;;;;;;5005775;28;20057;-72
2023/06/03 04:55:02;;;;;;;8.55;1.75;;;10.50;98.80;;;;;;4957545;28;216199;-72
2023/06/03 04:57:28;;;;;;;7.25;1.55;;;10.60;98.90;;;;;;4986360;28;20058;-71
2023/06/03 04:59:54;;;;;;;6.97;1.63;;;10.70;98.60;;;;;;4955237;28;207893;-72
2023/06/03 05:02:23;;;;;;;7.05;1.48;;;10.70;98.40;;;;;;4991439;28;20492;-71
2023/06/03 05:04:50;;;;;;;6.80;1.92;;;10.80;98.50;;;;;;4955038;28;206842;-72
2023/06/03 05:07:16;;;;;;;8.60;2.03;;;10.90;98.40;;;;;;4993755;28;20415;-73
2023/06/03 05:09:42;;;;;;;9.25;1.90;;;11.00;98.30;;;;;;4952952;28;222519;-73
2023/06/03 05:12:09;;;;;;;5.75;1.50;;;11.10;98.20;;;;;;5006786;28;20058;-72
2023/06/03 05:14:35;;;;;;;8.00;1.70;;;11.20;98.20;;;;;;4962116;28;206948;-73
2023/06/03 05:17:02;;;;;;;7.93;1.70;;;11.30;98.20;;;;;;4993774;28;20050;-72
2023/06/03 05:19:28;;;;;;;6.45;1.60;;;11.40;98.00;;;;;;4938977;28;215024;-71
2023/06/03 05:21:55;;;;;;;9.73;1.83;;;11.60;97.80;;;;;;4968026;28;20054;-72
2023/06/03 05:24:22;;;;;;;7.40;1.63;;;11.70;97.80;;;;;;4944136;28;205195;-72
2023/06/03 05:26:48;;;;;;;8.75;1.50;;;11.80;97.80;;;;;;4987988;28;20050;-72
2023/06/03 05:29:14;;;;;;;11.00;1.70;;;11.90;97.60;;;;;;4949756;28;229011;-72
2023/06/03 05:31:40;;;;;;;8.38;1.40;;;12.00;97.60;;;;;;4995275;28;20062;-72
2023/06/03 05:34:06;;;;;;;8.00;1.67;;;12.20;97.60;;;;;;4964621;28;220084;-71
2023/06/03 05:36:32;;;;;;;8.13;1.70;;;12.40;97.50;;;;;;5011925;28;20049;-73
2023/06/03 05:38:58;;;;;;;6.72;1.50;;;12.50;97.10;;;;;;4960591;28;210025;-73
2023/06/03 05:41:25;;;;;;;7.53;1.63;;;12.80;97.40;;;;;;5000005;28;20057;-71
2023/06/03 05:43:51;;;;;;;7.63;1.48;;;13.00;97.20;;;;;;4937481;28;205577;-72
2023/06/03 05:46:17;;;;;;;7.07;1.55;;;13.20;97.20;;;;;;5002224;28;20050;-73
2023/06/03 05:48:44;;;;;;;7.28;1.60;;;13.40;97.10;;;;;;4953603;28;207262;-72
2023/06/03 05:51:10;;;;;;;8.32;1.55;;;13.70;96.90;;;;;;5007479;28;20507;-72
2023/06/03 05:53:38;;;;;;;6.95;1.48;;;14.00;96.60;;;;;;4955129;28;216815;-73
2023/06/03 05:56:04;;;;;;;9.02;1.50;;;14.10;96.30;;;;;;5030144;28;20060;-72
2023/06/03 05:58:30;;;;;;;6.15;1.50;;;14.00;95.60;;;;;;4944503;28;212256;-72
2023/06/03 06:00:57;;;;;;;6.22;1.60;;;13.90;95.50;;;;;;4998275;28;20526;-72
2023/06/03 06:03:23;;;;;;;7.65;1.60;;;14.00;95.50;;;;;;4931461;28;218413;-71
2023/06/03 06:05:49;;;;;;;7.57;1.40;;;14.20;95.40;;;;;;5035306;28;20058;-73
2023/06/03 06:08:15;;;;;;;7.80;1.50;;;14.30;94.80;;;;;;4952891;28;213560;-74
2023/06/03 06:10:41;;;;;;;6.28;1.48;;;14.30;95.40;;;;;;5039633;28;20050;-72
2023/06/03 06:13:08;;;;;;;6.20;1.60;;;14.40;95.30;;;;;;4974795;28;208870;-71
2023/06/03 06:15:34;;;;;;;7.45;1.50;;;14.40;94.80;;;;;;5013591;28;20439;-73
2023/06/03 06:18:00;;;;;;;6.47;1.30;;;14.60;95.20;;;;;;4996163;28;20408;-73
2023/06/03 06:20:26;;;;;;;5.07;1.30;;;14.90;94.90;;;;;;4976443;28;260766;-73
2023/06/03 06:22:52;;;;;;;6.68;1.50;;;15.10;94.90;;;;;;5006376;28;20177;-72
2023/06/03 06:25:19;;;;;;;7.15;1.40;;;15.40;95.00;;;;;;4966392;28;232026;-73
2023/06/03 06:27:45;;;;;;;7.10;1.40;;;15.50;94.60;;;;;;4986344;28;20046;-72
2023/06/03 06:30:15;;;;;;;6.68;1.38;;;15.60;94.80;;;;;;4956068;28;207406;-74
2023/06/03 06:32:49;;;;;;;9.23;1.70;;;15.60;94.80;;;;;;5001542;28;20050;-73
2023/06/03 06:35:18;;;;;;;7.25;1.52;;;15.80;94.70;;;;;;4972326;28;241893;-72
2023/06/03 06:37:44;;;;;;;8.27;1.48;;;16.20;94.60;;;;;;5006567;28;20057;-73
2023/06/03 06:40:17;;;;;;;6.60;1.52;;;16.40;94.20;;;;;;4974431;28;200722;-74
2023/06/03 06:42:43;;;;;;;7.90;1.38;;;16.70;94.20;;;;;;5003307;28;20061;-73
2023/06/03 06:45:23;;;;;;;5.22;1.30;;;17.10;93.80;;;;;;4939182;28;209523;-72
2023/06/03 06:47:50;;;;;;;4.88;1.40;;;17.30;92.30;;;;;;4989034;28;20070;-72
2023/06/03 06:50:36;;;;;;;7.07;1.58;;;17.60;93.60;;;;;;4978159;28;240693;-73
2023/06/03 06:53:03;;;;;;;5.32;1.30;;;17.90;93.10;;;;;;4992341;28;207282;-71
2023/06/03 06:55:48;;;;;;;7.43;1.35;;;18.10;93.00;;;;;;4958350;28;208583;-72
2023/06/03 06:58:15;;;;;;;8.20;1.30;;;18.30;91.50;;;;;;4915145;28;233524;-71
2023/06/03 07:00:41;;;;;;;6.15;1.27;;;18.50;92.60;;;;;;5016475;28;20065;-70
2023/06/03 07:03:14;;;;;;;12.00;1.50;;;18.40;92.20;;;;;;4950191;28;209850;-71
2023/06/03 07:05:40;;;;;;;5.47;1.30;;;18.70;91.90;;;;;;5001951;28;20050;-70
2023/06/03 07:08:07;;;;;;;7.43;1.50;;;19.00;91.20;;;;;;4984329;28;213494;-71
2023/06/03 07:10:33;;;;;;;13.70;1.50;;;19.20;91.90;;;;;;4969668;28;20861;-70
2023/06/03 07:13:00;;;;;;;6.97;1.30;;;19.50;91.20;;;;;;4991518;28;20038;-71
2023/06/03 07:15:27;;;;;;;9.38;1.40;;;19.50;91.10;;;;;;4990767;28;89628;-71
2023/06/03 07:17:54;;;;;;;6.55;1.50;;;19.90;91.20;;;;;;5005630;28;20054;-71
2023/06/03 07:20:32;;;;;;;13.05;5.43;;;20.10;90.20;;;;;;4969837;28;207836;-70
2023/06/03 07:22:58;;;;;;;14.65;1.58;;;20.30;90.60;;;;;;4983833;28;20081;-70
2023/06/03 07:25:37;;;;;;;5.65;1.20;;;20.70;90.30;;;;;;4974375;28;206323;-70
2023/06/03 07:28:05;;;;;;;5.15;1.00;;;21.00;89.80;;;;;;4982739;28;207013;-69
2023/06/03 07:30:35;;;;;;;7.72;1.60;;;21.30;90.00;;;;;;4956012;28;272238;-70
2023/06/03 07:33:02;;;;;;;5.43;1.13;;;21.60;89.00;;;;;;4973283;28;211430;-71
2023/06/03 07:35:28;;;;;;;6.50;1.58;;;21.90;88.30;;;;;;4967895;28;168439;-70
2023/06/03 07:37:56;;;;;;;6.22;1.40;;;21.80;86.60;;;;;;5016399;28;20085;-72
2023/06/03 07:40:42;;;;;;;6.57;1.42;;;22.20;86.80;;;;;;4971708;28;208745;-71
2023/06/03 07:43:10;;;;;;;10.10;1.63;;;22.50;81.60;;;;;;4969863;28;206518;-70
2023/06/03 07:45:36;;;;;;;6.97;1.30;;;22.70;84.40;;;;;;5003546;28;20050;-72
2023/06/03 07:48:03;;;;;;;5.57;1.27;;;22.70;83.20;;;;;;4969733;28;207289;-71
2023/06/03 07:50:30;;;;;;;4.40;1.00;;;22.60;83.60;;;;;;4958078;28;29657;-69
2023/06/03 07:53:04;;;;;;;4.53;1.00;;;22.40;81.40;;;;;;4979992;28;20062;-71
2023/06/03 07:55:46;;;;;;;7.53;1.10;;;22.30;81.90;;;;;;4949663;28;98281;-72
2023/06/03 07:58:14;;;;;;;8.77;1.27;;;22.50;80.50;;;;;;4931836;28;214960;-72
2023/06/03 08:00:43;;;;;;;5.47;1.00;;;22.30;81.20;;;;;;5026801;28;20053;-71
2023/06/03 08:03:14;;;;;;;5.35;1.10;;;22.40;79.50;;;;;;4946458;28;208725;-69
2023/06/03 08:05:41;;;;;;;5.68;1.10;;;22.50;79.10;;;;;;5010243;28;20038;-70
2023/06/03 08:08:10;;;;;;;5.53;1.23;;;22.50;78.30;;;;;;4936179;28;225205;-70
2023/06/03 08:10:36;;;;;;;6.60;1.10;;;22.80;77.70;;;;;;5001217;28;20499;-69
2023/06/03 08:13:03;;;;;;;5.72;1.00;;;22.90;78.30;;;;;;4971032;28;209979;-68
2023/06/03 08:15:32;;;;;;;6.10;1.70;;;23.10;77.90;;;;;;4976677;28;153006;-69
2023/06/03 08:17:59;;;;;;;12.60;6.28;;;22.80;77.90;;;;;;4983452;28;20055;-69
2023/06/03 08:20:26;;;;;;;5.32;0.93;;;22.70;76.70;;;;;;4985767;28;206095;-69
2023/06/03 08:22:52;;;;;;;5.85;1.10;;;22.60;77.00;;;;;;5014995;28;20058;-70
2023/06/03 08:25:19;;;;;;;5.85;1.17;;;22.70;76.40;;;;;;4962582;28;236354;-69
2023/06/03 08:27:45;;;;;;;5.25;0.90;;;22.30;76.20;;;;;;5003378;28;20557;-68
2023/06/03 08:30:12;;;;;;;6.10;1.00;;;22.20;76.80;;;;;;4943780;28;210505;-69
2023/06/03 08:32:39;;;;;;;6.95;1.15;;;21.90;75.10;;;;;;4983523;28;20229;-71
2023/06/03 08:35:09;;;;;;;5.22;1.10;;;21.50;74.20;;;;;;4972477;28;212765;-69
2023/06/03 08:37:36;;;;;;;5.50;1.00;;;21.30;74.20;;;;;;4988118;28;20057;-69
2023/06/03 08:40:08;;;;;;;6.75;1.00;;;20.80;73.20;;;;;;4959037;28;209189;-70
2023/06/03 08:42:42;;;;;;;7.15;1.00;;;20.70;73.70;;;;;;4985958;28;20069;-69
2023/06/03 08:45:13;;;;;;;3.28;0.80;;;20.70;74.00;;;;;;4980100;28;204516;-73
2023/06/03 08:47:57;;;;;;;4.55;0.90;;;20.80;74.10;;;;;;5006065;28;20049;-72
2023/06/03 08:50:27;;;;;;;6.07;0.90;;;21.30;73.50;;;;;;4971067;28;209460;-70
2023/06/03 08:52:54;;;;;;;5.70;1.10;;;21.60;73.40;;;;;;4999713;28;20410;-71
2023/06/03 08:55:21;;;;;;;4.82;1.00;;;22.00;74.10;;;;;;4964702;28;210509;-70
2023/06/03 08:58:20;;;;;;;4.82;0.95;;;22.30;73.70;;;;;;5005305;28;20053;-71
2023/06/03 09:00:47;;;;;;;7.25;1.00;;;22.40;71.00;;;;;;4937111;28;20454;-72
2023/06/03 09:03:16;;;;;;;5.20;0.93;;;22.40;72.50;;;;;;4948827;28;209168;-71
2023/06/03 09:05:43;;;;;;;5.68;1.00;;;22.50;72.40;;;;;;5030862;28;20054;-71
2023/06/03 09:08:12;;;;;;;5.38;0.90;;;22.90;72.80;;;;;;4961599;28;207807;-72
2023/06/03 09:10:38;;;;;;;5.95;1.10;;;23.30;72.40;;;;;;5019188;28;20061;-71
2023/06/03 09:13:07;;;;;;;6.05;1.10;;;23.60;72.70;;;;;;4968736;28;212978;-71
2023/06/03 09:15:33;;;;;;;5.78;0.90;;;23.70;71.60;;;;;;4937426;28;20050;-71
2023/06/03 09:17:59;;;;;;;4.85;1.05;;;23.40;70.20;;;;;;5015028;28;20662;-71
2023/06/03 09:20:26;;;;;;;8.63;1.10;;;24.20;69.00;;;;;;4912699;28;210106;-72
2023/06/03 09:22:53;;;;;;;5.18;1.00;;;24.70;70.20;;;;;;4989745;28;20054;-71
2023/06/03 09:25:19;;;;;;;4.85;1.00;;;25.00;69.40;;;;;;4963647;28;221821;-70
2023/06/03 09:27:46;;;;;;;4.78;1.00;;;25.50;66.50;;;;;;4995240;28;20054;-72
2023/06/03 09:30:12;;;;;;;5.80;1.00;;;25.50;68.60;;;;;;4968555;28;207082;-71
2023/06/03 09:32:38;;;;;;;6.65;1.58;;;25.90;67.80;;;;;;5006079;28;20054;-72
2023/06/03 09:35:05;;;;;;;5.80;1.50;;;26.30;67.60;;;;;;4981475;28;194167;-71
2023/06/03 09:37:32;;;;;;;6.28;1.00;;;26.50;66.80;;;;;;5015321;28;20406;-71
2023/06/03 09:39:59;;;;;;;4.55;1.02;;;27.30;66.30;;;;;;4979385;28;227915;-71
2023/06/03 09:42:41;;;;;;;7.82;0.90;;;28.10;65.00;;;;;;5011392;28;20053;-71
2023/06/03 09:45:23;;;;;;;4.28;0.85;;;28.60;63.00;;;;;;4962201;28;212979;-71
2023/06/03 09:47:49;;;;;;;4.65;1.10;;;28.70;61.10;;;;;;4996610;28;20034;-72
2023/06/03 09:50:15;;;;;;;4.15;1.00;;;28.80;63.50;;;;;;4965383;28;212311;-72
2023/06/03 09:52:41;;;;;;;15.95;1.50;;;29.20;63.30;;;;;;4984690;28;20051;-70
2023/06/03 09:55:10;;;;;;;5.55;0.93;;;28.90;60.10;;;;;;4959623;28;220687;-72
2023/06/03 09:57:39;;;;;;;5.07;1.00;;;28.30;59.10;;;;;;5010412;28;20057;-71
2023/06/03 10:00:11;;;;;;;5.75;1.00;;;28.10;59.50;;;;;;4957884;28;209301;-74
2023/06/03 10:02:46;;;;;;;6.70;1.15;;;28.50;60.80;;;;;;4988021;28;20058;-71
2023/06/03 10:05:26;;;;;;;5.65;1.05;;;28.70;60.10;;;;;;4984181;28;208703;-71
2023/06/03 10:07:52;;;;;;;5.93;1.20;;;28.60;55.80;;;;;;5007741;28;20050;-71
2023/06/03 10:10:18;;;;;;;4.32;0.93;;;28.40;59.20;;;;;;4973777;28;208755;-72
2023/06/03 10:12:46;;;;;;;8.35;1.70;;;28.30;56.90;;;;;;4987221;28;20065;-71
2023/06/03 10:15:13;;;;;;;4.93;1.10;;;28.30;57.40;;;;;;4961955;28;207581;-71
2023/06/03 10:17:46;;;;;;;6.20;1.00;;;29.00;57.90;;;;;;5022509;28;20065;-72
2023/06/03 10:20:37;;;;;;;7.50;1.10;;;29.50;58.70;;;;;;4968328;28;209811;-72
2023/06/03 10:23:04;;;;;;;3.95;0.95;;;29.40;54.30;;;;;;4991318;28;215440;-72
2023/06/03 10:25:33;;;;;;;6.00;1.08;;;29.10;55.70;;;;;;4966103;28;174105;-72
2023/06/03 10:28:00;;;;;;;5.20;1.10;;;28.80;56.20;;;;;;4990744;28;20050;-71
2023/06/03 10:30:29;;;;;;;7.00;1.00;;;28.30;55.40;;;;;;4973218;28;261970;-71
2023/06/03 10:32:58;;;;;;;6.17;1.10;;;28.40;55.80;;;;;;4990249;28;20615;-71
2023/06/03 10:35:26;;;;;;;5.47;1.05;;;28.90;56.10;;;;;;4972803;28;207287;-72
2023/06/03 10:37:53;;;;;;;5.43;1.00;;;29.10;57.40;;;;;;5009841;28;20077;-72
2023/06/03 10:40:20;;;;;;;7.75;1.30;;;29.50;56.00;;;;;;4975438;28;211063;-71
2023/06/03 10:42:46;;;;;;;5.57;1.10;;;29.70;56.10;;;;;;4987696;28;20058;-71
2023/06/03 10:45:12;;;;;;;4.43;1.00;;;29.20;54.50;;;;;;4961260;28;247359;-72
2023/06/03 10:47:42;;;;;;;6.15;1.30;;;28.90;53.90;;;;;;5037292;28;20057;-72
2023/06/03 10:50:43;;;;;;;7.93;1.25;;;28.50;54.00;;;;;;4971729;28;211134;-72
2023/06/03 10:53:34;;;;;;;6.33;1.20;;;28.50;53.10;;;;;;4959092;28;209896;-72
2023/06/03 10:56:38;;;;;;;6.00;1.27;;;28.70;54.30;;;;;;5016601;28;20042;-71
2023/06/03 10:59:09;;;;;;;5.55;1.10;;;28.80;52.90;;;;;;4916839;28;214911;-72
2023/06/03 11:02:01;;;;;;;5.70;1.08;;;28.50;53.80;;;;;;4984911;28;20047;-72
2023/06/03 11:04:37;;;;;;;6.57;1.25;;;28.40;54.40;;;;;;4958318;28;212213;-73
2023/06/03 11:07:33;;;;;;;5.53;1.30;;;28.50;53.80;;;;;;5015593;28;20048;-73
2023/06/03 11:10:00;;;;;;;4.78;1.10;;;28.90;52.20;;;;;;4961028;28;212405;-73
2023/06/03 11:12:48;;;;;;;4.88;1.20;;;28.60;53.30;;;;;;5008806;28;20050;-73
2023/06/03 11:15:14;;;;;;;6.68;1.33;;;28.80;52.60;;;;;;4974177;28;207228;-72
2023/06/03 11:17:42;;;;;;;6.53;1.30;;;28.90;53.90;;;;;;5009971;28;21206;-72
2023/06/03 11:20:08;;;;;;;6.03;1.17;;;29.20;54.50;;;;;;4982634;28;209418;-72
2023/06/03 11:22:37;;;;;;;4.10;1.00;;;29.10;53.70;;;;;;5005937;28;20053;-73
2023/06/03 11:25:03;;;;;;;6.17;1.10;;;28.90;53.50;;;;;;4962009;28;207579;-72
2023/06/03 11:27:30;;;;;;;5.47;1.10;;;28.30;52.80;;;;;;4990474;28;20126;-73
2023/06/03 11:30:01;;;;;;;4.63;1.10;;;28.40;53.90;;;;;;4970745;28;208240;-72
2023/06/03 11:32:28;;;;;;;4.93;0.95;;;28.70;53.50;;;;;;4990876;28;20050;-73
2023/06/03 11:35:03;;;;;;;5.88;1.10;;;28.80;53.80;;;;;;4957226;28;208370;-71
2023/06/03 11:37:52;;;;;;;6.47;1.15;;;28.80;51.10;;;;;;4987965;28;20054;-72
2023/06/03 11:40:20;;;;;;;6.10;1.17;;;28.70;52.50;;;;;;4970361;28;180412;-73
2023/06/03 11:42:46;;;;;;;5.93;1.35;;;28.70;53.30;;;;;;5005412;28;20053;-72
2023/06/03 11:45:21;;;;;;;6.82;1.10;;;28.80;53.20;;;;;;4955462;28;223430;-72
2023/06/03 11:47:57;;;;;;;5.60;1.10;;;29.50;51.90;;;;;;4986111;28;20050;-73
2023/06/03 11:50:29;;;;;;;5.00;1.00;;;29.20;51.40;;;;;;4942136;28;213298;-74
2023/06/03 11:52:55;;;;;;;5.32;1.20;;;29.40;52.70;;;;;;4984241;28;20050;-71
2023/06/03 11:55:32;;;;;;;5.95;1.33;;;29.80;52.10;;;;;;4939618;28;208350;-72
2023/06/03 11:58:09;;;;;;;5.07;1.20;;;29.50;50.10;;;;;;4987244;28;20058;-72
2023/06/03 12:00:35;;;;;;;5.88;1.15;;;29.40;50.30;;;;;;4950737;28;20061;-73
2023/06/03 12:03:01;;;;;;;5.13;1.02;;;29.60;51.90;;;;;;4987164;28;20058;-73
2023/06/03 12:05:27;;;;;;;7.57;1.30;;;29.60;51.60;;;;;;4936600;28;92260;-73
2023/06/03 12:07:55;;;;;;;4.28;0.90;;;29.00;51.00;;;;;;4986235;28;20284;-72
2023/06/03 12:10:22;;;;;;;5.82;1.27;;;27.70;50.90;;;;;;4981919;28;207551;-71
2023/06/03 12:12:51;;;;;;;6.47;1.10;;;26.80;51.70;;;;;;5005910;28;20058;-70
2023/06/03 12:15:18;;;;;;;8.18;1.25;;;27.00;51.00;;;;;;4954541;28;214679;-72
2023/06/03 12:17:44;;;;;;;6.03;1.10;;;27.40;50.80;;;;;;4987702;28;20058;-71
2023/06/03 12:20:30;;;;;;;5.07;0.90;;;26.90;50.60;;;;;;4957933;28;210540;-70
2023/06/03 12:23:05;;;;;;;5.03;1.20;;;27.40;50.30;;;;;;5011773;28;20049;-71
2023/06/03 12:25:36;;;;;;;5.22;1.00;;;27.30;50.90;;;;;;4977294;28;147266;-71
2023/06/03 12:28:22;;;;;;;;;;;27.10;49.70;;;;;;4995838;28;209479;-71
2023/06/03 12:30:49;;;;;;;6.32;1.30;;;26.80;50.30;;;;;;4957550;28;206240;-72
2023/06/03 12:33:16;;;;;;;5.47;1.10;;;27.20;52.00;;;;;;4935757;28;212357;-71
2023/06/03 12:35:56;;;;;;;5.00;1.00;;;27.20;51.40;;;;;;5002538;28;20058;-71
2023/06/03 12:38:23;;;;;;;;;;;27.20;50.50;;;;;;4936318;28;207861;-72
2023/06/03 12:40:52;;;;;;;4.53;1.10;;;27.40;51.90;;;;;;4999632;28;19949;-72
2023/06/03 12:43:20;;;;;;;8.37;1.20;;;27.50;50.80;;;;;;4931200;28;206799;-72
2023/06/03 12:45:47;;;;;;;6.60;1.10;;;28.00;51.10;;;;;;5021318;28;20054;-71
2023/06/03 12:48:30;;;;;;;5.97;1.07;;;28.30;51.90;;;;;;4934418;28;207909;-72
2023/06/03 12:50:56;;;;;;;6.20;1.30;;;28.40;50.10;;;;;;5009519;28;20518;-73
2023/06/03 12:53:23;;;;;;;6.15;1.20;;;28.40;52.10;;;;;;4942497;28;207443;-73